createdAt,value
2019-06-20T00:02:17.260Z,11.40
2019-06-20T00:05:01.444Z,11.50
2019-06-20T00:07:40.065Z,11.60
2019-06-20T00:15:47.130Z,11.70
2019-06-20T00:18:26.371Z,11.80
2019-06-20T00:21:05.296Z,11.90
2019-06-20T00:23:43.670Z,12.10
2019-06-20T00:34:16.483Z,12.60
2019-06-20T00:36:57.680Z,12.60
2019-06-20T00:39:36.375Z,12.70
2019-06-20T00:42:21.297Z,12.70
2019-06-20T00:45:02.501Z,12.60
2019-06-20T00:47:40.962Z,13.00
2019-06-20T00:50:20.001Z,13.10
2019-06-20T00:53:01.198Z,13.10
2019-06-20T00:55:39.791Z,13.20
2019-06-20T00:58:18.327Z,13.40
2019-06-20T01:00:59.294Z,13.20
2019-06-20T01:03:38.540Z,13.40
2019-06-20T01:06:16.846Z,13.50
2019-06-20T01:08:55.365Z,13.70
2019-06-20T01:11:34.234Z,13.80
2019-06-20T01:14:13.495Z,13.80
2019-06-20T01:16:54.428Z,13.90
2019-06-20T02:14:09.658Z,15.10
2019-06-20T03:03:59.062Z,14.80
2019-06-20T03:06:37.522Z,15.10
2019-06-20T03:09:18.144Z,15.10
2019-06-20T03:11:56.966Z,15.00
2019-06-20T03:14:45.320Z,15.00
2019-06-20T03:17:22.828Z,15.00
2019-06-20T03:20:01.964Z,15.10
2019-06-20T03:22:40.870Z,15.10
2019-06-20T03:25:24.381Z,15.30
2019-06-20T03:35:54.384Z,14.80
2019-06-20T03:41:11.588Z,14.90
2019-06-20T03:43:49.928Z,14.80
2019-06-20T03:46:28.345Z,14.70
2019-06-20T03:49:06.817Z,14.80
2019-06-20T03:51:45.970Z,14.80
2019-06-20T03:54:26.453Z,14.90
2019-06-20T04:28:41.003Z,15.50
2019-06-20T04:31:24.087Z,15.10
2019-06-20T04:34:04.695Z,15.10
2019-06-20T04:36:47.965Z,15.10
2019-06-20T04:39:25.200Z,15.10
2019-06-20T04:42:04.555Z,15.00
2019-06-20T04:44:43.732Z,15.00
2019-06-20T04:47:22.241Z,15.00
2019-06-20T04:50:09.009Z,14.90
2019-06-20T04:52:47.689Z,14.90
2019-06-20T04:55:26.886Z,14.90
2019-06-20T04:58:05.627Z,14.90
2019-06-20T05:00:56.734Z,14.80
2019-06-20T05:03:35.266Z,14.90
2019-06-20T05:06:14.699Z,14.90
2019-06-20T05:08:56.820Z,14.90
2019-06-20T05:11:37.268Z,14.90
2019-06-20T05:14:15.862Z,14.90
2019-06-20T05:16:56.654Z,15.00
2019-06-20T05:19:35.812Z,15.00
2019-06-20T05:22:16.652Z,14.90
2019-06-20T05:24:56.915Z,14.90
2019-06-20T05:27:36.203Z,14.90
2019-06-20T05:30:16.212Z,14.70
2019-06-20T05:32:59.001Z,14.70
2019-06-20T05:35:41.414Z,14.70
2019-06-20T05:38:23.642Z,14.80
2019-06-20T05:41:01.959Z,14.80
2019-06-20T05:43:43.630Z,14.80
2019-06-20T05:46:24.003Z,14.80
2019-06-20T05:51:40.429Z,14.60
2019-06-20T05:56:58.177Z,14.60
2019-06-20T05:59:36.645Z,14.70
2019-06-20T06:02:15.792Z,14.70
2019-06-20T06:04:58.488Z,14.50
2019-06-20T06:07:36.941Z,14.60
2019-06-20T06:10:20.477Z,14.60
2019-06-20T06:12:59.725Z,14.60
2019-06-20T06:15:38.427Z,14.60
2019-06-20T06:18:20.496Z,14.50
2019-06-20T06:20:59.303Z,14.50
2019-06-20T06:23:40.135Z,14.50
2019-06-20T06:26:18.809Z,14.50
2019-06-20T06:28:57.437Z,14.40
2019-06-20T06:31:37.599Z,14.40
2019-06-20T06:36:53.299Z,14.50
2019-06-20T06:39:33.875Z,14.40
2019-06-20T06:44:57.427Z,14.50
2019-06-20T06:47:38.274Z,14.50
2019-06-20T06:50:18.064Z,14.40
2019-06-20T06:52:57.015Z,14.30
2019-06-20T06:55:38.367Z,14.30
2019-06-20T06:58:18.475Z,14.30
2019-06-20T07:00:57.442Z,14.20
2019-06-20T07:03:38.769Z,14.20
2019-06-20T07:06:20.018Z,14.20
2019-06-20T07:09:00.233Z,14.00
2019-06-20T07:11:38.710Z,13.80
2019-06-20T07:14:18.964Z,13.60
2019-06-20T07:17:00.564Z,13.50
2019-06-20T07:19:40.099Z,13.40
2019-06-20T07:22:19.642Z,13.40
2019-06-20T07:24:58.512Z,13.20
2019-06-20T07:27:40.946Z,13.20
2019-06-20T07:30:21.108Z,13.10
2019-06-20T07:33:03.495Z,13.00
2019-06-20T07:35:42.102Z,13.00
2019-06-20T07:38:21.388Z,13.00
2019-06-20T07:41:01.686Z,12.90
2019-06-20T07:43:40.614Z,12.70
2019-06-20T07:46:19.201Z,12.70
2019-06-20T07:49:00.607Z,12.60
2019-06-20T07:51:41.271Z,12.60
2019-06-20T07:54:21.556Z,12.60
2019-06-20T07:57:02.430Z,12.60
2019-06-20T07:59:41.770Z,12.50
2019-06-20T08:02:22.742Z,12.50
2019-06-20T08:05:01.901Z,12.10
2019-06-20T08:07:40.665Z,11.70
2019-06-20T08:10:21.217Z,11.10
2019-06-20T08:13:02.356Z,10.90
2019-06-20T08:15:41.094Z,10.80
2019-06-20T08:18:19.693Z,10.70
2019-06-20T08:21:00.586Z,10.80
2019-06-20T08:23:40.024Z,11.00
2019-06-20T08:26:18.913Z,11.30
2019-06-20T08:29:10.235Z,11.50
2019-06-20T08:31:38.921Z,11.70
2019-06-20T08:34:18.146Z,11.80
2019-06-20T08:36:58.838Z,11.90
2019-06-20T08:39:38.135Z,11.90
2019-06-20T08:42:18.653Z,12.00
2019-06-20T08:44:59.477Z,12.00
2019-06-20T08:47:40.982Z,11.90
2019-06-20T08:50:19.901Z,12.00
2019-06-20T08:52:59.708Z,11.90
2019-06-20T08:55:39.393Z,11.90
2019-06-20T08:58:22.068Z,11.80
2019-06-20T09:03:45.009Z,11.80
2019-06-20T09:06:27.438Z,11.80
2019-06-20T09:09:12.219Z,11.70
2019-06-20T09:11:51.251Z,11.70
2019-06-20T09:14:31.357Z,11.70
2019-06-20T09:17:10.436Z,11.80
2019-06-20T09:19:49.627Z,11.80
2019-06-20T09:22:30.481Z,11.80
2019-06-20T09:25:09.362Z,11.80
2019-06-20T09:27:54.107Z,11.80
2019-06-20T09:30:34.241Z,11.80
2019-06-20T09:33:15.279Z,11.80
2019-06-20T09:35:55.471Z,11.80
2019-06-20T09:38:34.043Z,11.80
2019-06-20T09:41:15.525Z,11.50
2019-06-20T09:43:58.486Z,11.30
2019-06-20T09:46:37.731Z,11.00
2019-06-20T09:49:17.747Z,10.90
2019-06-20T09:51:56.953Z,11.00
2019-06-20T09:54:35.460Z,11.20
2019-06-20T09:57:14.073Z,11.40
2019-06-20T10:00:05.829Z,11.60
2019-06-20T10:02:40.638Z,11.70
2019-06-20T10:05:19.650Z,11.80
2019-06-20T10:07:58.561Z,11.80
2019-06-20T10:10:37.679Z,11.90
2019-06-20T10:13:16.356Z,11.90
2019-06-20T10:15:55.629Z,11.90
2019-06-20T10:18:35.654Z,12.00
2019-06-20T10:21:15.027Z,11.90
2019-06-20T10:23:54.517Z,12.00
2019-06-20T10:26:33.099Z,12.00
2019-06-20T10:29:13.794Z,12.10
2019-06-20T10:31:54.264Z,12.10
2019-06-20T10:34:33.955Z,12.00
2019-06-20T10:37:12.592Z,12.10
2019-06-20T10:39:51.996Z,12.00
2019-06-20T10:42:30.899Z,12.00
2019-06-20T10:45:10.422Z,12.00
2019-06-20T10:47:50.783Z,12.10
2019-06-20T10:50:29.359Z,12.00
2019-06-20T10:53:14.036Z,12.10
2019-06-20T10:55:52.658Z,11.90
2019-06-20T10:58:31.132Z,12.00
2019-06-20T11:01:14.428Z,12.00
2019-06-20T11:03:52.915Z,12.00
2019-06-20T11:06:32.096Z,12.00
2019-06-20T11:09:14.046Z,11.90
2019-06-20T11:11:53.357Z,11.90
2019-06-20T11:14:33.471Z,12.00
2019-06-20T11:17:12.158Z,12.00
2019-06-20T11:19:52.222Z,12.00
2019-06-20T11:22:33.064Z,11.90
2019-06-20T11:25:11.861Z,12.00
2019-06-20T11:27:53.770Z,11.90
2019-06-20T11:30:44.898Z,11.90
2019-06-20T11:33:12.423Z,11.90
2019-06-20T11:35:53.759Z,11.80
2019-06-20T11:38:33.858Z,11.70
2019-06-20T11:41:12.582Z,11.30
2019-06-20T11:43:55.685Z,10.90
2019-06-20T11:46:35.282Z,10.60
2019-06-20T11:49:14.561Z,10.40
2019-06-20T11:51:53.036Z,10.50
2019-06-20T11:54:31.880Z,10.30
2019-06-20T11:57:12.066Z,10.10
2019-06-20T11:59:50.725Z,10.20
2019-06-20T12:02:29.419Z,10.40
2019-06-20T12:05:08.585Z,10.70
2019-06-20T12:07:49.801Z,10.80
2019-06-20T12:10:29.439Z,10.90
2019-06-20T12:13:07.943Z,11.10
2019-06-20T12:15:50.251Z,11.10
2019-06-20T12:18:29.193Z,11.10
2019-06-20T12:21:07.827Z,11.10
2019-06-20T12:23:49.456Z,11.10
2019-06-20T12:26:33.328Z,11.10
2019-06-20T12:29:14.043Z,11.20
2019-06-20T12:31:52.860Z,11.20
2019-06-20T12:34:31.508Z,11.10
2019-06-20T12:37:10.047Z,11.10
2019-06-20T12:39:49.259Z,11.10
2019-06-20T12:42:29.509Z,11.20
2019-06-20T12:45:08.405Z,11.10
2019-06-20T12:47:48.378Z,11.20
2019-06-20T12:50:27.901Z,11.20
2019-06-20T12:53:06.569Z,11.20
2019-06-20T12:55:47.484Z,11.20
2019-06-20T12:58:26.107Z,11.10
2019-06-20T13:01:07.268Z,11.10
2019-06-20T13:03:48.083Z,11.10
2019-06-20T13:06:27.753Z,11.10
2019-06-20T13:09:07.057Z,11.10
2019-06-20T13:11:47.019Z,11.10
2019-06-20T13:14:27.195Z,11.20
2019-06-20T13:17:07.517Z,11.20
2019-06-20T13:19:46.495Z,11.30
2019-06-20T13:22:27.496Z,11.20
2019-06-20T13:25:06.477Z,11.20
2019-06-20T13:27:45.727Z,11.20
2019-06-20T13:30:25.247Z,11.20
2019-06-20T13:33:04.444Z,11.20
2019-06-20T13:35:43.782Z,11.00
2019-06-20T13:38:22.678Z,11.10
2019-06-20T13:41:04.993Z,11.10
2019-06-20T13:43:44.132Z,11.20
2019-06-20T13:46:22.869Z,11.10
2019-06-20T13:51:39.965Z,11.10
2019-06-20T13:54:18.538Z,11.20
2019-06-20T13:56:58.325Z,11.20
2019-06-20T13:59:43.394Z,11.10
2019-06-20T14:02:23.610Z,11.00
2019-06-20T14:05:04.470Z,11.00
2019-06-20T14:07:47.054Z,11.10
2019-06-20T14:10:23.454Z,11.00
2019-06-20T14:13:02.050Z,11.10
2019-06-20T14:15:42.652Z,11.00
2019-06-20T14:18:21.035Z,11.10
2019-06-20T14:20:59.589Z,11.10
2019-06-20T14:23:41.036Z,11.00
2019-06-20T14:26:22.101Z,11.10
2019-06-20T14:29:01.244Z,11.00
2019-06-20T14:34:19.970Z,11.00
2019-06-20T14:36:58.902Z,11.00
2019-06-20T14:39:38.804Z,11.00
2019-06-20T14:42:17.550Z,11.00
2019-06-20T14:44:56.179Z,11.00
2019-06-20T14:47:37.456Z,10.90
2019-06-20T14:50:16.435Z,10.90
2019-06-20T14:52:54.961Z,10.90
2019-06-20T14:55:34.018Z,10.90
2019-06-20T14:58:14.402Z,10.90
2019-06-20T15:00:55.018Z,10.90
2019-06-20T15:03:35.166Z,10.90
2019-06-20T15:06:15.171Z,10.90
2019-06-20T15:09:04.862Z,10.90
2019-06-20T15:11:37.895Z,10.90
2019-06-20T15:14:16.341Z,10.90
2019-06-20T15:16:55.379Z,10.80
2019-06-20T15:19:35.145Z,10.80
2019-06-20T15:22:13.952Z,10.90
2019-06-20T15:24:53.545Z,10.80
2019-06-20T15:27:32.236Z,10.90
2019-06-20T15:30:12.939Z,10.80
2019-06-20T15:33:04.084Z,10.80
2019-06-20T15:35:31.296Z,10.70
2019-06-20T15:38:12.955Z,10.80
2019-06-20T15:40:53.073Z,10.80
2019-06-20T15:43:31.882Z,10.70
2019-06-20T15:46:11.897Z,10.60
2019-06-20T15:48:50.643Z,10.60
2019-06-20T15:51:29.163Z,10.50
2019-06-20T15:54:08.220Z,10.60
2019-06-20T15:56:48.563Z,10.80
2019-06-20T15:59:30.252Z,10.70
2019-06-20T16:02:08.975Z,10.60
2019-06-20T16:04:48.436Z,10.60
2019-06-20T16:07:28.424Z,10.50
2019-06-20T16:10:07.509Z,10.50
2019-06-20T16:12:46.199Z,10.50
2019-06-20T16:15:32.729Z,10.50
2019-06-20T16:18:11.258Z,10.50
2019-06-20T16:20:50.134Z,10.60
2019-06-20T16:23:28.741Z,10.60
2019-06-20T16:26:08.032Z,10.60
2019-06-20T16:28:46.596Z,10.60
2019-06-20T16:31:27.134Z,10.60
2019-06-20T16:34:05.030Z,10.60
2019-06-20T16:36:44.512Z,10.50
2019-06-20T16:39:23.076Z,10.50
2019-06-20T16:42:01.739Z,10.50
2019-06-20T16:44:40.292Z,10.50
2019-06-20T16:47:19.507Z,10.40
2019-06-20T16:49:59.696Z,10.40
2019-06-20T16:52:40.404Z,10.50
2019-06-20T16:55:21.428Z,10.40
2019-06-20T16:58:00.558Z,10.40
2019-06-20T17:00:39.290Z,10.40
2019-06-20T17:03:17.911Z,10.50
2019-06-20T17:05:59.605Z,10.40
2019-06-20T17:08:38.414Z,10.30
2019-06-20T17:11:17.402Z,10.20
2019-06-20T17:13:57.984Z,10.30
2019-06-20T17:16:36.645Z,10.20
2019-06-20T17:19:15.743Z,10.20
2019-06-20T17:21:54.230Z,10.30
2019-06-20T17:24:33.161Z,10.20
2019-06-20T17:27:12.023Z,10.20
2019-06-20T17:29:52.569Z,10.20
2019-06-20T17:32:31.078Z,10.20
2019-06-20T17:35:11.449Z,10.20
2019-06-20T17:37:49.991Z,10.20
2019-06-20T17:40:29.387Z,10.10
2019-06-20T17:43:10.343Z,10.10
2019-06-20T17:45:48.986Z,9.90
2019-06-20T17:48:29.039Z,9.90
2019-06-20T17:51:08.577Z,9.90
2019-06-20T17:53:49.557Z,9.90
2019-06-20T17:56:26.637Z,10.00
2019-06-20T17:59:05.290Z,9.90
2019-06-20T18:01:44.493Z,9.90
2019-06-20T18:04:26.677Z,9.90
2019-06-20T18:07:03.623Z,9.90
2019-06-20T18:09:42.278Z,9.90
2019-06-20T18:12:20.915Z,9.90
2019-06-20T18:14:59.381Z,9.90
2019-06-20T18:17:38.831Z,9.80
2019-06-20T18:20:20.698Z,9.80
2019-06-20T18:22:59.317Z,9.80
2019-06-20T18:25:40.984Z,9.80
2019-06-20T18:28:20.104Z,9.90
2019-06-20T18:30:58.783Z,9.90
2019-06-20T18:33:37.387Z,9.90
2019-06-20T18:36:17.269Z,9.80
2019-06-20T18:38:56.663Z,9.80
2019-06-20T18:41:35.063Z,9.70
2019-06-20T18:44:13.669Z,9.70
2019-06-20T18:46:53.425Z,9.70
2019-06-20T18:49:34.518Z,9.70
2019-06-20T18:52:14.495Z,9.70
2019-06-20T18:54:53.063Z,9.70
2019-06-20T18:57:32.875Z,9.70
2019-06-20T19:00:13.685Z,9.70
2019-06-20T19:02:52.223Z,9.70
2019-06-20T19:05:30.998Z,9.60
2019-06-20T19:08:11.051Z,9.70
2019-06-20T19:10:49.821Z,9.70
2019-06-20T19:13:31.878Z,9.60
2019-06-20T19:16:10.693Z,9.60
2019-06-20T19:18:52.395Z,9.60
2019-06-20T19:21:31.291Z,9.60
2019-06-20T19:24:11.351Z,9.60
2019-06-20T19:26:50.916Z,9.80
2019-06-20T19:29:29.507Z,9.70
2019-06-20T19:32:08.202Z,9.90
2019-06-20T19:35:00.995Z,9.70
2019-06-20T19:37:27.118Z,9.70
2019-06-20T19:40:05.905Z,9.70
2019-06-20T19:42:46.198Z,9.70
2019-06-20T19:45:24.836Z,9.80
2019-06-20T19:48:05.793Z,9.70
2019-06-20T19:50:44.943Z,9.80
2019-06-20T19:53:23.674Z,9.70
2019-06-20T19:56:02.961Z,9.70
2019-06-20T19:58:41.537Z,9.80
2019-06-20T20:01:22.660Z,9.70
2019-06-20T20:04:03.163Z,9.70
2019-06-20T20:06:41.859Z,9.50
2019-06-20T20:09:22.496Z,9.50
2019-06-20T20:14:38.757Z,9.50
2019-06-20T20:17:17.451Z,9.60
2019-06-20T20:19:56.207Z,9.50
2019-06-20T20:22:34.775Z,9.50
2019-06-20T20:25:16.151Z,9.40
2019-06-20T20:27:54.526Z,9.50
2019-06-20T20:30:34.861Z,9.40
2019-06-20T20:33:16.753Z,9.50
2019-06-20T20:35:56.078Z,9.50
2019-06-20T20:38:34.473Z,9.40
2019-06-20T20:41:13.138Z,9.30
2019-06-20T20:43:51.712Z,9.30
2019-06-20T20:46:33.418Z,9.20
2019-06-20T20:49:13.960Z,9.30
2019-06-20T20:51:54.543Z,9.20
2019-06-20T20:54:33.090Z,9.30
2019-06-20T20:57:14.006Z,9.20
2019-06-20T20:59:52.498Z,9.20
2019-06-20T21:02:33.021Z,9.30
2019-06-20T21:05:13.506Z,9.20
2019-06-20T21:07:52.265Z,9.20
2019-06-20T21:10:30.945Z,9.30
2019-06-20T21:13:10.089Z,9.30
2019-06-20T21:15:48.706Z,9.30
2019-06-20T21:21:03.103Z,9.20
2019-06-20T21:23:43.624Z,9.20
2019-06-20T21:29:00.482Z,9.00
2019-06-20T21:31:39.317Z,9.00
2019-06-20T21:34:19.278Z,9.10
2019-06-20T21:37:00.805Z,9.10
2019-06-20T21:39:39.629Z,9.10
2019-06-20T21:42:18.092Z,9.00
2019-06-20T21:44:59.999Z,9.00
2019-06-20T21:47:40.245Z,9.10
2019-06-20T21:50:20.358Z,9.00
2019-06-20T21:52:59.107Z,9.00
2019-06-20T21:55:38.862Z,9.10
2019-06-20T21:58:20.124Z,9.00
2019-06-20T22:01:01.797Z,9.00
2019-06-20T22:03:40.339Z,9.00
2019-06-20T22:06:23.976Z,9.00
2019-06-20T22:09:01.000Z,9.00
2019-06-20T22:11:41.022Z,9.00
2019-06-20T22:14:19.768Z,9.00
2019-06-20T22:19:36.668Z,8.90
2019-06-20T22:22:15.103Z,8.90
2019-06-20T22:24:53.644Z,8.90
2019-06-20T22:27:33.567Z,8.90
2019-06-20T22:30:14.155Z,8.90
2019-06-20T22:32:53.280Z,9.00
2019-06-20T22:35:32.366Z,8.90
2019-06-20T22:38:12.582Z,8.90
2019-06-20T22:40:52.254Z,8.90
2019-06-20T22:43:30.990Z,8.80
2019-06-20T22:46:09.434Z,8.80
2019-06-20T22:48:48.128Z,8.60
2019-06-20T22:51:28.685Z,8.70
2019-06-20T22:54:07.289Z,8.60
2019-06-20T22:56:45.941Z,8.60
2019-06-20T22:59:26.968Z,8.70
2019-06-20T23:02:06.344Z,8.70
2019-06-20T23:04:47.604Z,8.90
2019-06-20T23:07:25.960Z,8.90
2019-06-20T23:10:10.290Z,8.80
2019-06-20T23:12:44.904Z,8.90
2019-06-20T23:15:23.775Z,9.00
2019-06-20T23:18:03.496Z,9.30
2019-06-20T23:21:00.417Z,9.60
2019-06-20T23:23:24.982Z,9.60
2019-06-20T23:26:04.753Z,9.70
2019-06-20T23:28:43.081Z,9.80
2019-06-20T23:31:21.877Z,9.80
2019-06-20T23:34:00.932Z,9.80
2019-06-20T23:36:41.307Z,9.90
2019-06-20T23:39:21.863Z,9.80
2019-06-20T23:42:00.168Z,9.80
2019-06-20T23:44:41.166Z,9.80
2019-06-20T23:47:21.682Z,9.90
2019-06-20T23:50:00.161Z,10.00
2019-06-20T23:52:41.808Z,9.80
2019-06-20T23:55:21.088Z,10.00
2019-06-20T23:58:01.200Z,10.10
